• Join FlightAware (Why Join?)
  • Login
  • US Flag 
09:07PM EDT


 

Airport Tracker/Info


-or-


 

Live Flight TrackerFlight Track Log ✈ UAL555 ✈ 06-Jul-2013 ✈ KEWR - KFLL

Flight Track Log - Related Links

Times and Time Zones

All times are in EDT time to prevent confusion due to time zone crossing. See the UAL555 flight status page for this flight to view local times or setup timezone preferences in your user account.

Time Position Orientation Groundspeed Altitude Reporting Facility
EDT Latitude Longitude Course Direction KTS MPH feet Rate Location/Type
10:36AM 40.6333 -74.2000 194° South 191 220 1,900  Level New York TRACON
10:36AM 40.6333 -74.2000 194° South 191 220 1,900 1,980 Level New York TRACON
10:37AM 40.5667 -74.2500 210° Southwest 260 299 4,100 1,980 Climbing New York TRACON
10:37AM 40.5667 -74.2500 210° Southwest 260 299 4,100 1,080 Level New York TRACON
10:39AM 40.4586 -74.2353 174° South 309 356 6,000 1,080 Climbing New York Center
10:39AM 40.4586 -74.2353 174° South 309 356 6,000  Level New York Center
10:40AM 40.3767 -74.1928 158° South 297 342 6,000  Level New York Center
10:40AM 40.3767 -74.1928 158° South 297 342 6,000 1,260 Level New York Center
10:41AM 40.1502 -74.1999 194° South  Level FlightAware Approximate
10:41AM 40.1502 -74.1999 194° South  Level FlightAware Approximate
10:41AM 40.3064 -74.1703 166° South 285 328 7,300  Level New York Center
10:41AM 40.3064 -74.1703 166° South 285 328 7,300 2,880 Level New York Center
10:42AM 40.2203 -74.1933 192° South 278 320 10,200 2,880 Climbing New York Center
10:42AM 40.2203 -74.1933 192° South 278 320 10,200 1,320 Level New York Center
10:43AM 40.1425 -74.2192 194° South 306 352 11,500 1,320 Climbing New York Center
10:43AM 40.1425 -74.2192 194° South 306 352 11,500 2,220 Level New York Center
10:45AM 39.9886 -74.3756 218° Southwest 344 396 16,100 2,220 Climbing Washington Center
10:45AM 39.9886 -74.3756 218° Southwest 344 396 16,100 1,980 Level Washington Center
10:46AM 39.9103 -74.4581 219° Southwest 350 403 18,100 1,980 Climbing Washington Center
10:46AM 39.9103 -74.4581 219° Southwest 350 403 18,100 960 Level Washington Center
10:47AM 39.8319 -74.5431 220° Southwest 355 409 19,100 960 Climbing Washington Center
10:47AM 39.8319 -74.5431 220° Southwest 355 409 19,100 60 Level Washington Center
10:48AM 39.7556 -74.6253 220° Southwest 371 427 19,200 60 Climbing Washington Center
10:48AM 39.7556 -74.6253 220° Southwest 371 427 19,200 1,080 Level Washington Center
10:49AM 39.6625 -74.7264 220° Southwest 416 479 20,300 1,080 Climbing Washington Center
10:49AM 39.6625 -74.7264 220° Southwest 416 479 20,300 960 Level Washington Center
10:50AM 39.5631 -74.8297 219° Southwest 448 516 21,300 960 Climbing Washington Center
10:50AM 39.5631 -74.8297 219° Southwest 448 516 21,300 1,020 Level Washington Center
10:51AM 39.4658 -74.9331 219° Southwest 458 527 22,300 1,020 Climbing Washington Center
10:51AM 39.4658 -74.9331 219° Southwest 458 527 22,300 1,080 Level Washington Center
10:52AM 39.3683 -75.0386 220° Southwest 458 527 23,400 1,080 Climbing Washington Center
10:52AM 39.3683 -75.0386 220° Southwest 458 527 23,400 480 Level Washington Center
10:53AM 39.2647 -75.1278 214° Southwest 458 527 23,900 480 Climbing Washington Center
10:53AM 39.2647 -75.1278 214° Southwest 458 527 23,900 540 Level Washington Center
10:54AM 39.1439 -75.1794 198° South 453 521 24,500 540 Climbing Washington Center
10:54AM 39.1439 -75.1794 198° South 453 521 24,500 600 Level Washington Center
10:55AM 39.0169 -75.2308 197° South 459 528 25,100 600 Climbing Washington Center
10:55AM 39.0169 -75.2308 197° South 459 528 25,100 300 Level Washington Center
10:56AM 38.8919 -75.2822 198° South 471 542 25,400 300 Climbing Washington Center
10:56AM 38.8919 -75.2822 198° South 471 542 25,400 660 Level Washington Center
10:57AM 38.7650 -75.3361 198° South 482 555 26,100 660 Climbing Washington Center
10:57AM 38.7650 -75.3361 198° South 482 555 26,100 780 Level Washington Center
10:58AM 38.6400 -75.3922 199° South 482 555 26,900 780 Climbing Washington Center
10:58AM 38.6400 -75.3922 199° South 482 555 26,900 900 Level Washington Center
10:59AM 38.5150 -75.4431 198° South 482 555 27,800 900 Climbing Washington Center
10:59AM 38.5150 -75.4431 198° South 482 555 27,800 780 Level Washington Center
11:00AM 38.3919 -75.4911 197° South 482 555 28,600 780 Climbing Washington Center
11:00AM 38.3919 -75.4911 197° South 482 555 28,600 780 Level Washington Center
11:01AM 38.2608 -75.5628 203° Southwest 477 549 29,400 780 Climbing Washington Center
11:01AM 38.2608 -75.5628 203° Southwest 477 549 29,400 840 Level Washington Center
11:02AM 38.1419 -75.6339 205° Southwest 470 541 30,200 840 Climbing Washington Center
11:02AM 38.1419 -75.6339 205° Southwest 470 541 30,200 660 Level Washington Center
11:03AM 38.0500 -75.6894 205° Southwest 470 541 30,900 660 Climbing Washington Center
11:03AM 38.0500 -75.6894 205° Southwest 470 541 30,900 1,020 Level Washington Center
11:04AM 37.9269 -75.7708 208° Southwest 462 532 32,000 1,020 Climbing Washington Center
11:04AM 37.9269 -75.7708 208° Southwest 462 532 32,000 1,980 Level Washington Center
11:06AM 37.6972 -75.9172 207° Southwest 467 537 36,000 1,980 Climbing Washington Center
11:06AM 37.6972 -75.9172 207° Southwest 467 537 36,000 -2,040 Level Washington Center
11:07AM 37.5844 -75.9875 206° Southwest 460 529 34,000 -2,040 Descending Washington Center
11:07AM 37.5844 -75.9875 206° Southwest 460 529 34,000 180 Level Washington Center
11:08AM 37.4694 -76.0575 206° Southwest 460 529 34,200 180 Climbing Washington Center
11:08AM 37.4694 -76.0575 206° Southwest 460 529 34,200 960 Level Washington Center
11:09AM 37.3564 -76.1275 206° Southwest 460 529 35,200 960 Climbing Washington Center
11:09AM 37.3564 -76.1275 206° Southwest 460 529 35,200 660 Level Washington Center
11:10AM 37.2247 -76.1997 204° Southwest 460 529 35,900 660 Climbing Washington Center
11:10AM 37.2247 -76.1997 204° Southwest 460 529 35,900 60 Level Washington Center
11:11AM 37.1117 -76.2689 206° Southwest 460 529 36,000 60 Climbing Washington Center
11:11AM 37.1117 -76.2689 206° Southwest 460 529 36,000  Level Washington Center
11:12AM 36.9967 -76.3383 206° Southwest 460 529 36,000  Level Washington Center
11:12AM 36.9967 -76.3383 206° Southwest 460 529 36,000  Level Washington Center
11:13AM 36.8814 -76.4072 206° Southwest 460 529 36,000  Level Washington Center
11:13AM 36.8814 -76.4072 206° Southwest 460 529 36,000  Level Washington Center
11:14AM 36.7683 -76.4761 206° Southwest 460 529 36,000  Level Washington Center
11:14AM 36.7683 -76.4761 206° Southwest 460 529 36,000  Level Washington Center
11:15AM 36.6508 -76.5419 204° Southwest 460 529 36,000  Level Washington Center
11:15AM 36.6508 -76.5419 204° Southwest 460 529 36,000  Level Washington Center
11:16AM 36.5317 -76.5897 198° South 460 529 36,000  Level Washington Center
11:16AM 36.5317 -76.5897 198° South 460 529 36,000  Level Washington Center
11:17AM 36.4100 -76.6450 200° South 460 529 36,000  Level Washington Center
11:17AM 36.4100 -76.6450 200° South 460 529 36,000  Level Washington Center
11:18AM 36.2886 -76.6922 197° South 460 529 36,000  Level Washington Center
11:18AM 36.2886 -76.6922 197° South 460 529 36,000  Level Washington Center
11:19AM 36.1694 -76.7422 199° South 460 529 36,000  Level Washington Center
11:19AM 36.1694 -76.7422 199° South 460 529 36,000  Level Washington Center
11:20AM 36.0478 -76.7917 198° South 465 535 36,000  Level Washington Center
11:20AM 36.0478 -76.7917 198° South 465 535 36,000  Level Washington Center
11:26AM 35.3414 -77.0842 199° South 460 529 36,000  Level Washington Center
11:27AM 35.2219 -77.1328 198° South 460 529 36,000  Level Washington Center
11:28AM 35.1022 -77.1839 199° South 460 529 36,000  Level Washington Center
11:29AM 34.9806 -77.2322 198° South 460 529 36,000  Level Washington Center
11:30AM 34.8589 -77.2828 199° South 465 535 36,000 -60 Level Washington Center
11:31AM 34.7392 -77.3308 198° South 465 535 35,900  Descending Washington Center
11:32AM 34.6175 -77.3814 199° South 465 535 36,000  Climbing Washington Center
11:33AM 34.4956 -77.4317 199° South 465 535 35,900  Descending Washington Center
11:34AM 34.3761 -77.4792 198° South 465 535 36,000  Climbing Washington Center
11:35AM 34.2542 -77.5267 198° South 465 535 36,000  Level Washington Center
11:37AM 34.0283 -77.6133 198° South 466 536 36,000  Level Jacksonville Center
11:38AM 33.9075 -77.6656 200° South 466 536 36,000  Level Jacksonville Center
11:39AM 33.7842 -77.7103 197° South 466 536 36,000  Level Jacksonville Center
11:40AM 33.6611 -77.7600 199° South 466 536 36,000  Level Jacksonville Center
11:41AM 33.5378 -77.8094 198° South 466 536 36,000  Level Jacksonville Center
11:42AM 33.4167 -77.8564 198° South 471 542 36,000  Level Jacksonville Center
11:43AM 33.2914 -77.9056 198° South 471 542 36,000 -60 Level Jacksonville Center
11:44AM 33.1722 -77.9519 198° South 471 542 35,900  Descending Jacksonville Center
11:45AM 33.0364 -78.0042 198° South 471 542 36,000  Climbing Jacksonville Center
11:46AM 32.9233 -78.0497 199° South 471 542 36,000  Level Jacksonville Center
11:47AM 32.8019 -78.0933 197° South 471 542 36,000  Level Jacksonville Center
11:48AM 32.6683 -78.1475 199° South 466 536 36,000  Level Jacksonville Center
11:49AM 32.5469 -78.1956 198° South 466 536 36,000  Level Jacksonville Center
11:50AM 32.4256 -78.2436 198° South 466 536 36,000 -60 Level Jacksonville Center
11:51AM 32.3144 -78.2861 198° South 472 543 35,900  Descending Jacksonville Center
11:52AM 32.1889 -78.3367 199° South 472 543 36,000  Climbing Jacksonville Center
11:53AM 32.0714 -78.3794 197° South 466 536 36,000  Level Jacksonville Center
11:54AM 31.9500 -78.4269 198° South 466 536 36,000  Level Jacksonville Center
11:55AM 31.8225 -78.4769 198° South 466 536 36,000 -60 Level Jacksonville Center
11:56AM 31.7050 -78.5194 197° South 461 531 35,900  Descending Jacksonville Center
11:57AM 31.5811 -78.5667 198° South 461 531 36,000  Climbing Jacksonville Center
11:58AM 31.4575 -78.6136 198° South 456 525 36,000  Level Jacksonville Center
11:59AM 31.3358 -78.6558 197° South 456 525 36,000  Level Jacksonville Center
12:00PM 31.2142 -78.7025 198° South 456 525 36,000  Level Jacksonville Center
12:01PM 31.0925 -78.7467 197° South 456 525 36,000  Level Jacksonville Center
12:02PM 30.9708 -78.7933 198° South 456 525 36,000  Level Jacksonville Center
12:04PM 30.7014 -78.8908 197° South 462 532 36,000  Level Miami Center
12:05PM 30.5778 -78.9367 198° South 462 532 36,000 -60 Level Miami Center
12:06PM 30.4606 -78.9825 199° South 462 532 35,900  Descending Miami Center
12:07PM 30.3328 -79.0161 193° South 467 537 36,000  Climbing Miami Center
12:08PM 30.2053 -79.0494 193° South 462 532 36,000 -60 Level Miami Center
12:09PM 30.0836 -79.0828 193° South 462 532 35,900  Descending Miami Center
12:10PM 29.9497 -79.1256 195° South 467 537 36,000 -180 Climbing Miami Center
12:11PM 29.8281 -79.1589 193° South 460 529 35,600 -720 Descending Miami Center
12:12PM 29.6964 -79.1872 191° South 460 529 34,600 -840 Descending Miami Center
12:13PM 29.5667 -79.2131 190° South 465 535 34,000 -300 Descending Miami Center
12:14PM 29.4428 -79.2533 196° South 473 544 34,000  Level Miami Center
12:15PM 29.3150 -79.2839 192° South 473 544 34,000  Level Miami Center
12:16PM 29.1853 -79.3167 192° South 473 544 34,000  Level Miami Center
12:17PM 29.0553 -79.3444 191° South 473 544 34,000  Level Miami Center
12:18PM 28.9317 -79.3797 194° South 468 539 34,000 -240 Level Miami Center
12:19PM 28.8017 -79.4100 192° South 473 544 33,600 -720 Descending Miami Center
12:20PM 28.6739 -79.4425 193° South 473 544 32,600 -960 Descending Miami Center
12:21PM 28.5481 -79.4750 193° South 473 544 31,700 -960 Descending Miami Center
12:22PM 28.4139 -79.5072 192° South 473 544 30,700 -900 Descending Miami Center
12:23PM 28.2861 -79.5397 193° South 473 544 30,000 -360 Descending Miami Center
12:24PM 28.1603 -79.5697 192° South 467 537 30,000  Level Miami Center
12:25PM 28.0344 -79.6019 193° South 467 537 30,000 -300 Level Miami Center
12:26PM 27.9086 -79.6317 192° South 467 537 29,400 -780 Descending Miami Center
12:27PM 27.8017 -79.6572 192° South 456 525 28,500 -900 Descending Miami Center
12:28PM 27.6800 -79.6872 192° South 451 519 27,600 -1,020 Descending Miami Center
12:29PM 27.5478 -79.7167 191° South 451 519 26,500 -1,080 Descending Miami Center
12:30PM 27.4303 -79.7442 192° South 445 512 25,500 -1,200 Descending Miami Center
12:31PM 27.3128 -79.7694 191° South 434 499 24,200 -1,200 Descending Miami Center
12:32PM 27.2153 -79.7458 168° South 403 464 23,200 -1,740 Descending Miami Center
12:33PM 27.1072 -79.7153 166° South 403 464 20,800 -2,520 Descending Miami Center
12:34PM 26.9931 -79.6797 164° South 403 464 18,200 -2,100 Descending Miami Center
12:35PM 26.8933 -79.6469 164° South 388 447 16,600 -1,800 Descending Miami Center
12:36PM 26.7908 -79.6633 188° South 362 417 14,700 -1,800 Descending Miami Center
12:37PM 26.7086 -79.7056 205° Southwest 362 417 13,100 -1,860 Descending Miami Center
12:38PM 26.6136 -79.7472 201° Southwest 360 414 11,300 -1,620 Descending Miami Center
12:39PM 26.5253 -79.7892 203° Southwest 330 380 10,100 -1,560 Descending Miami Center
12:40PM 26.4472 -79.8267 203° Southwest 290 334 8,200 -1,020 Descending Miami Center
12:41PM 26.3794 -79.8622 205° Southwest 297 342 8,000 -420 Descending Miami Center
12:42PM 26.3156 -79.9231 220° Southwest 262 302 7,400 -1,080 Descending Miami Center
12:43PM 26.2667 -79.9706 221° Southwest 243 280 6,000 -720 Descending Miami Center
12:44PM 26.2133 -80.0200 220° Southwest 245 282 6,000  Level Miami Center
12:45PM 26.1681 -80.0814 231° Southwest 253 291 6,000 -600 Level Miami Center
12:46PM 26.1475 -80.1547 253° West 247 284 4,900 -960 Descending Miami Center
12:48PM 26.1483 -80.3053 270° West 208 239 3,200 -900 Descending Miami Center
12:49PM 26.1081 -80.3297 209° Southwest 166 191 2,300 -600 Descending Miami Center
12:50PM 26.0775 -80.2986 138° Southeast 167 192 2,000 -540 Descending Miami Center
12:51PM 26.0744 -80.2478 94° East 160 184 1,300 -660 Descending Miami Center
12:52PM 26.0756 -80.2061 88° East 133 153 700 -600 Descending Miami Center
12:54PM 26.0667 -80.1500 103° East  Level FlightAware Approximate
01:01PM 26.0726 -80.1527 103° East  Level Estimated